Terminal Aerodrome Forecast
Issued by NWS Cleveland, OH

Home | Current Version | Previous Version | Graphics & Text | Print | Product List | Glossary Off
Versions: 1 2 3 4 5 6 7 8 9 10 11 12 13 14 15 16 17 18

000
FTUS41 KCLE 311700 RRA
TAFTOL
TAF
KTOL 311748Z 3118/0118 22010KT P6SM SCT040
     FM312300 22004KT P6SM SCT100 OVC250
     FM010600 VRB04KT 4SM -SN OVC035
      TEMPO 0108/0110 1SM -SN BR BKN012 OVC035
     FM011000 05006KT 1SM -SN OVC012
     FM011600 05012G20KT 1/2SM SN OVC006=

USA.gov is the U.S. government's official web portal to all federal, state and local government web resources and services.